createdAt,value
2018-02-27T00:01:43.028Z,30.15
2018-02-27T00:04:09.280Z,31.62
2018-02-27T00:06:35.563Z,35.30
2018-02-27T00:09:02.631Z,29.42
2018-02-27T00:11:28.929Z,29.45
2018-02-27T00:13:55.205Z,26.70
2018-02-27T00:16:22.533Z,30.37
2018-02-27T00:18:49.571Z,40.50
2018-02-27T00:21:15.895Z,35.22
2018-02-27T00:23:42.182Z,32.53
2018-02-27T00:26:08.471Z,33.50
2018-02-27T00:28:35.546Z,29.45
2018-02-27T00:31:02.028Z,25.88
2018-02-27T00:33:28.335Z,24.92
2018-02-27T00:35:55.361Z,29.67
2018-02-27T00:38:21.746Z,32.35
2018-02-27T00:40:48.046Z,23.55
2018-02-27T00:43:14.369Z,26.67
2018-02-27T00:45:40.680Z,32.25
2018-02-27T00:48:06.967Z,27.92
2018-02-27T00:50:33.294Z,21.33
2018-02-27T00:52:59.596Z,29.42
2018-02-27T00:55:25.866Z,28.85
2018-02-27T00:57:52.166Z,26.08
2018-02-27T01:00:18.474Z,28.05
2018-02-27T01:02:44.836Z,23.20
2018-02-27T01:05:11.108Z,30.83
2018-02-27T01:07:38.216Z,29.90
2018-02-27T01:10:04.568Z,25.92
2018-02-27T01:12:30.858Z,32.72
2018-02-27T01:14:57.147Z,34.28
2018-02-27T01:17:25.191Z,31.35
2018-02-27T01:19:51.499Z,28.20
2018-02-27T01:22:17.807Z,30.62
2018-02-27T01:24:44.102Z,30.17
2018-02-27T01:27:10.370Z,28.62
2018-02-27T01:29:36.686Z,27.70
2018-02-27T01:32:03.734Z,25.35
2018-02-27T01:34:30.766Z,26.90
2018-02-27T01:36:57.076Z,30.62
2018-02-27T01:39:23.435Z,27.25
2018-02-27T01:41:49.727Z,29.52
2018-02-27T01:44:17.232Z,30.23
2018-02-27T01:46:43.546Z,40.78
2018-02-27T01:49:09.835Z,31.10
2018-02-27T01:51:36.141Z,28.45
2018-02-27T01:54:02.422Z,36.35
2018-02-27T01:56:28.768Z,35.83
2018-02-27T01:58:55.226Z,28.00
2018-02-27T02:01:21.570Z,34.63
2018-02-27T02:03:47.875Z,34.83
2018-02-27T02:06:14.898Z,27.52
2018-02-27T02:08:41.167Z,29.33
2018-02-27T02:11:08.227Z,28.65
2018-02-27T02:13:34.522Z,25.48
2018-02-27T02:16:00.822Z,28.65
2018-02-27T02:18:27.091Z,36.47
2018-02-27T02:20:55.198Z,29.83
2018-02-27T02:23:21.491Z,29.15
2018-02-27T02:25:48.546Z,30.10
2018-02-27T02:28:15.578Z,33.50
2018-02-27T02:30:41.889Z,26.48
2018-02-27T02:33:08.174Z,28.48
2018-02-27T02:35:34.451Z,25.52
2018-02-27T02:38:00.779Z,28.48
2018-02-27T02:40:27.029Z,26.98
2018-02-27T02:42:53.314Z,24.60
2018-02-27T02:45:20.324Z,23.45
2018-02-27T02:47:47.381Z,27.67
2018-02-27T02:50:13.663Z,26.77
2018-02-27T02:52:39.943Z,21.55
2018-02-27T02:55:07.130Z,25.25
2018-02-27T02:57:33.405Z,27.17
2018-02-27T02:59:59.675Z,23.67
2018-02-27T03:02:25.976Z,19.27
2018-02-27T03:04:52.994Z,20.77
2018-02-27T03:07:19.297Z,21.90
2018-02-27T03:09:46.306Z,23.30
2018-02-27T03:12:14.346Z,24.17
2018-02-27T03:14:41.410Z,25.95
2018-02-27T03:17:07.722Z,25.88
2018-02-27T03:19:33.997Z,19.15
2018-02-27T03:22:01.070Z,24.70
2018-02-27T03:24:27.330Z,19.37
2018-02-27T03:26:53.619Z,25.37
2018-02-27T03:29:19.895Z,30.25
2018-02-27T03:31:46.174Z,26.60
2018-02-27T03:34:12.453Z,22.40
2018-02-27T03:36:38.726Z,30.62
2018-02-27T03:39:05.739Z,25.50
2018-02-27T03:41:32.014Z,23.27
2018-02-27T03:43:58.298Z,23.80
2018-02-27T03:46:24.586Z,23.40
2018-02-27T03:48:50.904Z,25.33
2018-02-27T03:51:17.207Z,30.27
2018-02-27T03:53:43.487Z,24.58
2018-02-27T03:56:09.763Z,25.62
2018-02-27T03:58:38.059Z,21.50
2018-02-27T04:01:05.087Z,20.37
2018-02-27T04:03:31.419Z,23.00
2018-02-27T04:05:57.726Z,24.35
2018-02-27T04:08:24.021Z,26.12
2018-02-27T04:10:50.290Z,26.55
2018-02-27T04:13:16.578Z,25.88
2018-02-27T04:15:42.867Z,26.00
2018-02-27T04:18:09.146Z,27.37
2018-02-27T04:20:35.432Z,23.62
2018-02-27T04:23:01.729Z,29.02
2018-02-27T04:25:27.993Z,30.67
2018-02-27T04:27:54.282Z,24.45
2018-02-27T04:30:20.559Z,27.17
2018-02-27T04:32:46.815Z,21.20
2018-02-27T04:35:14.110Z,29.63
2018-02-27T04:37:40.385Z,32.38
2018-02-27T04:40:07.425Z,22.70
2018-02-27T04:42:34.435Z,23.00
2018-02-27T04:45:00.757Z,29.37
2018-02-27T04:47:27.091Z,29.40
2018-02-27T04:49:53.431Z,23.90
2018-02-27T04:52:19.734Z,29.30
2018-02-27T04:54:46.062Z,28.40
2018-02-27T04:57:12.331Z,29.27
2018-02-27T04:59:38.658Z,30.00
2018-02-27T05:02:04.925Z,24.40
2018-02-27T05:04:31.986Z,25.02
2018-02-27T05:06:58.249Z,27.90
2018-02-27T05:09:24.531Z,25.48
2018-02-27T05:11:51.576Z,26.17
2018-02-27T05:14:17.849Z,31.60
2018-02-27T05:16:44.171Z,29.90
2018-02-27T05:19:10.446Z,34.97
2018-02-27T05:21:36.721Z,56.65
2018-02-27T05:24:03.012Z,26.50
2018-02-27T05:26:29.304Z,36.53
2018-02-27T05:28:55.595Z,27.27
2018-02-27T05:31:22.667Z,31.33
2018-02-27T05:33:48.941Z,30.67
2018-02-27T05:36:15.244Z,37.97
2018-02-27T05:38:41.557Z,35.92
2018-02-27T05:41:07.842Z,31.37
2018-02-27T05:43:34.126Z,33.15
2018-02-27T05:46:00.467Z,25.98
2018-02-27T05:48:26.750Z,28.45
2018-02-27T05:50:53.043Z,22.48
2018-02-27T05:53:19.310Z,35.60
2018-02-27T05:55:45.602Z,29.70
2018-02-27T05:58:11.893Z,34.95
2018-02-27T06:00:38.920Z,26.83
2018-02-27T06:03:05.190Z,33.53
2018-02-27T06:05:31.499Z,29.42
2018-02-27T06:07:58.534Z,34.58
2018-02-27T06:10:25.577Z,37.05
2018-02-27T06:12:52.881Z,35.13
2018-02-27T06:15:19.188Z,26.20
2018-02-27T06:17:45.454Z,31.65
2018-02-27T06:20:11.734Z,35.70
2018-02-27T06:22:38.747Z,28.55
2018-02-27T06:25:05.035Z,32.25
2018-02-27T06:27:31.307Z,34.13
2018-02-27T06:29:57.563Z,36.28
2018-02-27T06:32:24.623Z,32.53
2018-02-27T06:34:51.638Z,30.05
2018-02-27T06:37:17.908Z,31.40
2018-02-27T06:39:44.917Z,37.90
2018-02-27T06:42:11.216Z,26.08
2018-02-27T06:44:37.492Z,33.78
2018-02-27T06:47:03.787Z,31.52
2018-02-27T06:49:30.074Z,29.23
2018-02-27T06:51:57.120Z,29.75
2018-02-27T06:54:24.183Z,33.08
2018-02-27T06:56:50.538Z,27.10
2018-02-27T06:59:16.804Z,31.75
2018-02-27T07:01:43.090Z,32.45
2018-02-27T07:04:09.385Z,26.30
2018-02-27T07:06:36.402Z,25.62
2018-02-27T07:09:02.732Z,32.58
2018-02-27T07:11:29.049Z,36.45
2018-02-27T07:13:55.347Z,35.35
2018-02-27T07:16:21.659Z,35.05
2018-02-27T07:18:48.666Z,32.03
2018-02-27T07:21:14.955Z,31.70
2018-02-27T07:23:41.220Z,29.85
2018-02-27T07:26:07.495Z,28.80
2018-02-27T07:28:34.510Z,27.73
2018-02-27T07:31:00.796Z,38.90
2018-02-27T07:33:27.083Z,37.95
2018-02-27T07:35:53.354Z,32.00
2018-02-27T07:38:19.694Z,28.15
2018-02-27T07:40:45.970Z,36.80
2018-02-27T07:43:12.274Z,34.03
2018-02-27T07:45:38.550Z,39.10
2018-02-27T07:48:05.562Z,34.10
2018-02-27T07:50:31.861Z,27.83
2018-02-27T07:52:58.148Z,29.27
2018-02-27T07:55:24.421Z,85.43
2018-02-27T07:57:50.730Z,224.45
2018-02-27T08:00:17.765Z,379.63
2018-02-27T08:02:44.037Z,64.90
2018-02-27T08:05:10.380Z,42.92
2018-02-27T08:07:36.782Z,31.70
2018-02-27T08:10:03.834Z,40.58
2018-02-27T08:12:30.854Z,31.80
2018-02-27T08:14:57.147Z,32.65
2018-02-27T08:17:23.519Z,38.30
2018-02-27T08:19:49.795Z,38.28
2018-02-27T08:22:16.090Z,29.92
2018-02-27T08:24:43.134Z,30.48
2018-02-27T08:27:09.419Z,33.15
2018-02-27T08:29:35.702Z,30.67
2018-02-27T08:32:02.718Z,30.95
2018-02-27T08:34:29.028Z,33.67
2018-02-27T08:36:55.294Z,34.88
2018-02-27T08:39:21.577Z,31.35
2018-02-27T08:41:47.864Z,51.42
2018-02-27T08:44:14.182Z,32.58
2018-02-27T08:46:40.471Z,38.03
2018-02-27T08:49:06.749Z,28.00
2018-02-27T08:51:33.030Z,31.23
2018-02-27T08:53:59.326Z,34.65
2018-02-27T08:56:26.352Z,36.55
2018-02-27T08:58:52.635Z,30.15
2018-02-27T09:01:18.918Z,31.23
2018-02-27T09:03:45.206Z,31.87
2018-02-27T09:06:11.518Z,25.20
2018-02-27T09:08:37.794Z,38.22
2018-02-27T09:11:04.082Z,31.52
2018-02-27T09:13:30.366Z,33.88
2018-02-27T09:15:56.660Z,34.17
2018-02-27T09:18:23.980Z,36.28
2018-02-27T09:20:51.005Z,32.88
2018-02-27T09:23:18.025Z,34.40
2018-02-27T09:25:44.297Z,33.25
2018-02-27T09:28:11.326Z,31.95
2018-02-27T09:30:37.592Z,33.13
2018-02-27T09:33:03.862Z,32.83
2018-02-27T09:35:30.146Z,26.92
2018-02-27T09:37:57.153Z,32.92
2018-02-27T09:40:23.474Z,35.65
2018-02-27T09:42:49.764Z,31.83
2018-02-27T09:45:16.071Z,29.40
2018-02-27T09:47:43.084Z,30.62
2018-02-27T09:50:09.351Z,30.73
2018-02-27T09:52:36.359Z,25.88
2018-02-27T09:55:02.643Z,26.35
2018-02-27T09:57:28.990Z,30.55
2018-02-27T09:59:55.312Z,32.97
2018-02-27T10:02:21.582Z,35.05
2018-02-27T10:04:47.906Z,33.92
2018-02-27T10:07:14.210Z,33.13
2018-02-27T10:09:40.516Z,34.83
2018-02-27T10:12:07.526Z,32.97
2018-02-27T10:14:33.827Z,26.77
2018-02-27T10:17:01.134Z,36.50
2018-02-27T10:19:27.402Z,33.17
2018-02-27T10:21:53.683Z,31.27
2018-02-27T10:24:19.959Z,27.45
2018-02-27T10:26:46.253Z,36.53
2018-02-27T10:29:12.699Z,32.45
2018-02-27T10:31:39.731Z,25.50
2018-02-27T10:34:05.990Z,28.35
2018-02-27T10:36:33.022Z,28.83
2018-02-27T10:39:00.238Z,25.40
2018-02-27T10:41:26.798Z,35.03
2018-02-27T10:43:53.095Z,29.70
2018-02-27T10:46:19.969Z,27.17
2018-02-27T10:48:46.491Z,29.17
2018-02-27T10:51:12.765Z,29.30
2018-02-27T10:53:40.018Z,33.85
2018-02-27T10:56:07.043Z,28.23
2018-02-27T10:58:33.498Z,31.73
2018-02-27T11:01:01.622Z,29.65
2018-02-27T11:03:27.914Z,32.97
2018-02-27T11:05:55.695Z,25.58
2018-02-27T11:08:22.338Z,24.23
2018-02-27T11:10:49.372Z,26.17
2018-02-27T11:13:16.955Z,24.90
2018-02-27T11:15:44.106Z,30.27
2018-02-27T11:18:10.438Z,28.12
2018-02-27T11:20:36.758Z,24.23
2018-02-27T11:23:03.071Z,32.65
2018-02-27T11:25:29.350Z,30.40
2018-02-27T11:27:55.643Z,51.05
2018-02-27T11:30:21.943Z,24.48
2018-02-27T11:32:48.966Z,26.17
2018-02-27T11:35:15.232Z,28.77
2018-02-27T11:37:42.246Z,33.38
2018-02-27T11:40:08.559Z,30.33
2018-02-27T11:42:34.869Z,26.70
2018-02-27T11:45:01.172Z,22.92
2018-02-27T11:47:28.200Z,29.00
2018-02-27T11:49:56.742Z,26.20
2018-02-27T11:52:23.079Z,22.67
2018-02-27T11:54:49.354Z,25.92
2018-02-27T11:57:16.363Z,22.62
2018-02-27T11:59:42.653Z,26.05
2018-02-27T12:02:09.542Z,30.37
2018-02-27T12:04:35.859Z,33.33
2018-02-27T12:07:02.151Z,23.05
2018-02-27T12:09:29.170Z,22.92
2018-02-27T12:11:55.446Z,22.62
2018-02-27T12:14:21.715Z,22.60
2018-02-27T12:16:48.024Z,24.33
2018-02-27T12:19:14.291Z,26.48
2018-02-27T12:21:40.591Z,25.92
2018-02-27T12:24:06.867Z,26.83
2018-02-27T12:26:33.135Z,27.35
2018-02-27T12:28:59.419Z,19.70
2018-02-27T12:31:25.711Z,21.30
2018-02-27T12:33:51.971Z,20.65
2018-02-27T12:36:19.298Z,23.92
2018-02-27T12:38:45.599Z,20.60
2018-02-27T12:41:11.868Z,22.27
2018-02-27T12:43:38.144Z,20.85
2018-02-27T12:46:05.195Z,26.37
2018-02-27T12:48:32.215Z,23.23
2018-02-27T12:50:58.520Z,26.85
2018-02-27T12:53:24.783Z,20.42
2018-02-27T12:55:51.098Z,16.45
2018-02-27T12:58:17.380Z,18.98
2018-02-27T13:00:43.672Z,22.83
2018-02-27T13:03:09.956Z,23.73
2018-02-27T13:05:36.707Z,25.52
2018-02-27T13:08:03.052Z,25.85
2018-02-27T13:10:30.107Z,28.02
2018-02-27T13:12:56.436Z,20.35
2018-02-27T13:15:22.723Z,26.77
2018-02-27T13:17:49.069Z,18.67
2018-02-27T13:20:15.438Z,15.77
2018-02-27T13:22:41.738Z,20.55
2018-02-27T13:25:08.006Z,21.70
2018-02-27T13:27:34.294Z,22.02
2018-02-27T13:30:00.587Z,20.73
2018-02-27T13:32:27.621Z,29.35
2018-02-27T13:34:53.926Z,24.58
2018-02-27T13:37:20.231Z,19.37
2018-02-27T13:39:46.561Z,17.35
2018-02-27T13:42:12.851Z,22.25
2018-02-27T13:44:39.141Z,17.60
2018-02-27T13:47:06.466Z,21.55
2018-02-27T13:49:33.762Z,17.37
2018-02-27T13:52:00.055Z,19.90
2018-02-27T13:54:26.327Z,21.90
2018-02-27T13:56:52.607Z,15.32
2018-02-27T13:59:18.908Z,19.60
2018-02-27T14:01:45.175Z,25.12
2018-02-27T14:04:11.475Z,21.35
2018-02-27T14:06:37.753Z,20.52
2018-02-27T14:09:04.086Z,21.23
2018-02-27T14:11:30.368Z,21.52
2018-02-27T14:13:57.393Z,24.00
2018-02-27T14:16:23.661Z,20.52
2018-02-27T14:18:50.701Z,20.98
2018-02-27T14:21:17.727Z,18.35
2018-02-27T14:23:44.022Z,21.33
2018-02-27T14:26:10.294Z,17.02
2018-02-27T14:28:36.568Z,14.15
2018-02-27T14:31:02.854Z,17.62
2018-02-27T14:33:29.142Z,16.30
2018-02-27T14:35:55.415Z,18.35
2018-02-27T14:38:21.701Z,18.50
2018-02-27T14:40:48.004Z,15.32
2018-02-27T14:43:15.036Z,20.60
2018-02-27T14:45:42.034Z,13.90
2018-02-27T14:48:08.307Z,14.52
2018-02-27T14:50:34.588Z,18.90
2018-02-27T14:53:00.863Z,18.95
2018-02-27T14:55:27.171Z,18.77
2018-02-27T14:57:53.452Z,20.70
2018-02-27T15:00:20.482Z,17.05
2018-02-27T15:02:46.766Z,16.98
2018-02-27T15:05:13.040Z,19.90
2018-02-27T15:07:39.314Z,21.25
2018-02-27T15:10:05.595Z,16.35
2018-02-27T15:12:31.876Z,15.02
2018-02-27T15:14:58.209Z,18.08
2018-02-27T15:17:25.198Z,17.35
2018-02-27T15:19:51.501Z,19.40
2018-02-27T15:22:17.769Z,20.45
2018-02-27T15:24:44.827Z,15.95
2018-02-27T15:27:11.846Z,18.75
2018-02-27T15:29:38.118Z,16.02
2018-02-27T15:32:04.415Z,16.48
2018-02-27T15:34:30.712Z,16.95
2018-02-27T15:36:57.005Z,17.15
2018-02-27T15:39:23.487Z,17.70
2018-02-27T15:41:49.810Z,21.92
2018-02-27T15:44:16.778Z,20.12
2018-02-27T15:46:43.084Z,23.05
2018-02-27T15:49:09.411Z,19.80
2018-02-27T15:51:35.714Z,18.35
2018-02-27T15:54:02.744Z,22.40
2018-02-27T15:56:29.803Z,21.30
2018-02-27T15:58:56.807Z,20.88
2018-02-27T16:01:23.214Z,19.05
2018-02-27T16:03:50.255Z,18.75
2018-02-27T16:06:16.550Z,25.77
2018-02-27T16:08:42.874Z,18.23
2018-02-27T16:11:09.169Z,19.20
2018-02-27T16:13:35.451Z,18.83
2018-02-27T16:16:01.763Z,21.25
2018-02-27T16:18:28.248Z,21.12
2018-02-27T16:20:54.590Z,21.87
2018-02-27T16:23:20.954Z,16.17
2018-02-27T16:25:47.263Z,15.38
2018-02-27T16:28:13.557Z,17.45
2018-02-27T16:30:40.587Z,20.15
2018-02-27T16:33:06.914Z,21.45
2018-02-27T16:35:33.198Z,19.70
2018-02-27T16:38:00.231Z,16.37
2018-02-27T16:40:26.517Z,18.70
2018-02-27T16:42:52.804Z,16.45
2018-02-27T16:45:19.103Z,22.37
2018-02-27T16:47:46.142Z,22.98
2018-02-27T16:50:13.182Z,19.02
2018-02-27T16:52:40.222Z,18.23
2018-02-27T16:55:06.522Z,21.20
2018-02-27T16:57:32.829Z,22.27
2018-02-27T16:59:59.154Z,25.58
2018-02-27T17:02:25.442Z,16.37
2018-02-27T17:04:51.774Z,21.60
2018-02-27T17:07:18.059Z,22.50
2018-02-27T17:09:45.447Z,21.48
2018-02-27T17:12:12.652Z,26.12
2018-02-27T17:14:38.923Z,31.30
2018-02-27T17:17:06.053Z,24.27
2018-02-27T17:19:33.115Z,27.58
2018-02-27T17:21:59.393Z,31.55
2018-02-27T17:24:26.462Z,22.67
2018-02-27T17:26:52.782Z,21.48
2018-02-27T17:29:19.848Z,24.17
2018-02-27T17:31:46.173Z,28.33
2018-02-27T17:34:13.293Z,18.30
2018-02-27T17:36:39.607Z,25.37
2018-02-27T17:39:05.903Z,16.45
2018-02-27T17:41:32.228Z,18.70
2018-02-27T17:43:58.548Z,16.67
2018-02-27T17:46:24.907Z,22.17
2018-02-27T17:48:52.284Z,27.02
2018-02-27T17:51:18.579Z,30.70
2018-02-27T17:53:44.931Z,19.08
2018-02-27T17:56:11.222Z,31.35
2018-02-27T17:58:37.538Z,25.65
2018-02-27T18:01:03.874Z,22.37
2018-02-27T18:03:30.915Z,20.95
2018-02-27T18:05:58.001Z,26.87
2018-02-27T18:08:25.143Z,25.27
2018-02-27T18:10:51.472Z,25.50
2018-02-27T18:13:17.820Z,24.80
2018-02-27T18:15:44.189Z,17.90
2018-02-27T18:18:17.828Z,56.00
2018-02-27T18:20:44.261Z,36.78
2018-02-27T18:23:11.700Z,28.60
2018-02-27T18:25:38.743Z,20.77
2018-02-27T18:28:05.079Z,22.92
2018-02-27T18:30:31.376Z,26.58
2018-02-27T18:32:57.688Z,21.25
2018-02-27T18:35:23.990Z,21.83
2018-02-27T18:37:51.222Z,27.17
2018-02-27T18:40:18.813Z,26.70
2018-02-27T18:42:46.845Z,33.30
2018-02-27T18:45:13.172Z,32.17
2018-02-27T18:47:39.464Z,30.60
2018-02-27T18:50:18.013Z,35.83
2018-02-27T18:52:45.460Z,28.65
2018-02-27T18:55:14.489Z,29.37
2018-02-27T18:57:49.397Z,19.27
2018-02-27T19:00:16.994Z,29.12
2018-02-27T19:02:50.755Z,35.30
2018-02-27T19:05:23.052Z,40.28
2018-02-27T19:08:00.811Z,28.55
2018-02-27T19:10:28.220Z,26.05
2018-02-27T19:12:55.260Z,27.87
2018-02-27T19:15:21.596Z,35.85
2018-02-27T19:17:47.952Z,55.17
2018-02-27T19:20:14.298Z,59.83
2018-02-27T19:22:42.367Z,70.15
2018-02-27T19:25:08.646Z,49.28
2018-02-27T19:27:34.992Z,31.83
2018-02-27T19:30:01.347Z,23.30
2018-02-27T19:32:27.725Z,34.55
2018-02-27T19:34:54.115Z,35.83
2018-02-27T19:37:20.760Z,26.08
2018-02-27T19:39:47.548Z,31.35
2018-02-27T19:42:14.082Z,32.92
2018-02-27T19:44:40.388Z,35.97
2018-02-27T19:47:06.729Z,32.58
2018-02-27T19:49:33.049Z,33.97
2018-02-27T19:51:59.403Z,36.30
2018-02-27T19:54:25.715Z,35.40
2018-02-27T19:56:52.003Z,43.47
2018-02-27T19:59:19.033Z,26.45
2018-02-27T20:01:50.563Z,29.45
2018-02-27T20:04:16.883Z,23.87
2018-02-27T20:06:43.443Z,28.17
2018-02-27T20:09:09.745Z,27.10
2018-02-27T20:11:36.082Z,29.00
2018-02-27T20:14:02.443Z,34.55
2018-02-27T20:16:28.778Z,27.25
2018-02-27T20:18:55.838Z,25.48
2018-02-27T20:21:25.255Z,36.10
2018-02-27T20:24:12.400Z,36.47
2018-02-27T20:26:38.683Z,33.88
2018-02-27T20:29:12.105Z,34.90
2018-02-27T20:31:38.512Z,40.33
2018-02-27T20:36:44.523Z,114.60
2018-02-27T20:41:50.993Z,90.18
2018-02-27T20:44:30.277Z,124.45
2018-02-27T20:49:37.072Z,162.32
2018-02-27T20:52:03.383Z,124.50
2018-02-27T20:54:29.783Z,104.00
2018-02-27T20:56:56.079Z,89.80
2018-02-27T20:59:22.361Z,378.48
2018-02-27T21:01:49.426Z,124.43
2018-02-27T21:04:15.759Z,159.80
2018-02-27T21:06:42.080Z,247.30
2018-02-27T21:09:08.365Z,315.55
2018-02-27T21:11:34.671Z,226.27
2018-02-27T21:14:01.484Z,168.35
2018-02-27T21:16:27.915Z,143.85
2018-02-27T21:18:55.021Z,76.97
2018-02-27T21:21:21.294Z,78.55
2018-02-27T21:23:48.338Z,73.60
2018-02-27T21:26:14.629Z,80.45
2018-02-27T21:28:41.005Z,78.45
2018-02-27T21:31:07.266Z,46.58
2018-02-27T21:33:33.547Z,65.68
2018-02-27T21:35:59.855Z,56.33
2018-02-27T21:38:26.213Z,49.38
2018-02-27T21:40:54.262Z,44.40
2018-02-27T21:43:20.545Z,35.75
2018-02-27T21:45:46.826Z,34.65
2018-02-27T21:48:13.123Z,27.50
2018-02-27T21:50:39.402Z,35.15
2018-02-27T21:53:05.695Z,33.22
2018-02-27T21:55:31.992Z,30.20
2018-02-27T21:57:58.276Z,42.97
2018-02-27T22:00:24.545Z,29.20
2018-02-27T22:02:52.596Z,33.63
2018-02-27T22:05:18.926Z,36.30
2018-02-27T22:07:45.971Z,27.35
2018-02-27T22:10:12.290Z,29.75
2018-02-27T22:12:38.607Z,36.72
2018-02-27T22:15:04.902Z,36.00
2018-02-27T22:17:31.187Z,46.83
2018-02-27T22:19:57.459Z,33.47
2018-02-27T22:22:23.822Z,40.10
2018-02-27T22:24:51.182Z,36.65
2018-02-27T22:27:17.490Z,30.95
2018-02-27T22:29:44.523Z,32.78
2018-02-27T22:32:10.839Z,32.45
2018-02-27T22:34:37.866Z,30.83
2018-02-27T22:37:04.216Z,33.60
2018-02-27T22:39:30.495Z,39.97
2018-02-27T22:41:56.795Z,37.63
2018-02-27T22:44:23.082Z,33.80
2018-02-27T22:46:49.386Z,43.50
2018-02-27T22:49:15.687Z,45.42
2018-02-27T22:51:41.987Z,39.05
2018-02-27T22:54:08.267Z,39.13
2018-02-27T22:56:34.569Z,35.63
2018-02-27T22:59:01.604Z,41.08
2018-02-27T23:01:28.638Z,71.87
2018-02-27T23:03:54.935Z,74.40
2018-02-27T23:06:21.263Z,45.90
2018-02-27T23:08:47.563Z,37.40
2018-02-27T23:11:13.842Z,51.15
2018-02-27T23:13:40.118Z,50.12
2018-02-27T23:16:07.137Z,76.62
2018-02-27T23:18:33.447Z,71.60
2018-02-27T23:20:59.753Z,73.00
2018-02-27T23:23:26.059Z,87.45
2018-02-27T23:25:59.283Z,47.53
2018-02-27T23:28:27.522Z,31.73
2018-02-27T23:30:56.600Z,39.95
2018-02-27T23:33:23.936Z,34.38
2018-02-27T23:35:50.274Z,41.60
2018-02-27T23:38:16.567Z,35.65
2018-02-27T23:40:42.851Z,33.30
2018-02-27T23:43:09.924Z,38.83
2018-02-27T23:45:36.962Z,48.38
2018-02-27T23:48:03.987Z,34.30
2018-02-27T23:50:30.292Z,35.50
2018-02-27T23:52:56.575Z,34.65
2018-02-27T23:55:23.646Z,40.30
2018-02-27T23:57:49.947Z,43.72
